SWA3987 KHOU-KMSY
Flight info
| Callsign | SWA3987 |
|---|---|
| Flight time | 0h 45m |
| Altitude | 33000 |
| Route | ELOCO6 LLA AWDAD AWDAD1 |
| Aircraft | B737/M-SDE2E3FGHIRWXY/LB1 |
Departure
| Time | 2026-05-05 04:32 |
|---|---|
| Airport | William P. Hobby Airport (KHOU) |
Arrival
| Time | 2026-05-05 05:17 |
|---|---|
| Airport | Louis Armstrong New Orleans International Airport (KMSY) |
| Time | Latitude | Longitude | Altitude | Speed | Heading |
|---|---|---|---|---|---|
| 2026-05-05 04:13 | 29.65303 | -95.27800 | 51 ft | 0 kts | 157° |
| 2026-05-05 04:22 | 29.65313 | -95.27805 | 50 ft | 4 kts | 157° |
| 2026-05-05 04:22 | 29.65337 | -95.27814 | 47 ft | 4 kts | 182° |
| 2026-05-05 04:22 | 29.65358 | -95.27804 | 51 ft | 4 kts | 238° |
| 2026-05-05 04:22 | 29.65365 | -95.27790 | 51 ft | 1 kts | 248° |
| 2026-05-05 04:23 | 29.65365 | -95.27788 | 51 ft | 0 kts | 248° |
| 2026-05-05 04:25 | 29.65364 | -95.27793 | 51 ft | 2 kts | 248° |
| 2026-05-05 04:25 | 29.65356 | -95.27816 | 51 ft | 4 kts | 248° |
| 2026-05-05 04:25 | 29.65342 | -95.27856 | 51 ft | 7 kts | 249° |
| 2026-05-05 04:25 | 29.65324 | -95.27909 | 49 ft | 7 kts | 248° |
| 2026-05-05 04:26 | 29.65300 | -95.27957 | 51 ft | 7 kts | 228° |
| 2026-05-05 04:26 | 29.65270 | -95.28000 | 51 ft | 7 kts | 254° |
| 2026-05-05 04:26 | 29.65291 | -95.28046 | 48 ft | 7 kts | 314° |
| 2026-05-05 04:26 | 29.65324 | -95.28085 | 51 ft | 7 kts | 314° |
| 2026-05-05 04:27 | 29.65344 | -95.28140 | 51 ft | 8 kts | 267° |
| 2026-05-05 04:27 | 29.65327 | -95.28202 | 51 ft | 8 kts | 250° |
| 2026-05-05 04:27 | 29.65310 | -95.28263 | 51 ft | 8 kts | 251° |
| 2026-05-05 04:27 | 29.65292 | -95.28321 | 49 ft | 8 kts | 248° |
| 2026-05-05 04:28 | 29.65260 | -95.28368 | 49 ft | 7 kts | 225° |
| 2026-05-05 04:28 | 29.65229 | -95.28413 | 51 ft | 7 kts | 247° |
| 2026-05-05 04:28 | 29.65223 | -95.28467 | 51 ft | 7 kts | 268° |
| 2026-05-05 04:28 | 29.65223 | -95.28491 | 51 ft | 0 kts | 269° |
| 2026-05-05 04:29 | 29.65223 | -95.28498 | 51 ft | 2 kts | 269° |
| 2026-05-05 04:30 | 29.65220 | -95.28531 | 51 ft | 6 kts | 254° |
| 2026-05-05 04:30 | 29.65184 | -95.28561 | 49 ft | 7 kts | 191° |
| 2026-05-05 04:30 | 29.65135 | -95.28564 | 51 ft | 7 kts | 178° |
| 2026-05-05 04:30 | 29.65091 | -95.28546 | 51 ft | 7 kts | 143° |
| 2026-05-05 04:31 | 29.65053 | -95.28503 | 51 ft | 12 kts | 134° |
| 2026-05-05 04:31 | 29.64823 | -95.28230 | 51 ft | 83 kts | 134° |
| 2026-05-05 04:31 | 29.64267 | -95.27575 | 76 ft | 139 kts | 137° |
| 2026-05-05 04:31 | 29.63590 | -95.26736 | 619 ft | 148 kts | 136° |
| 2026-05-05 04:32 | 29.62866 | -95.25811 | 1133 ft | 160 kts | 137° |
| 2026-05-05 04:32 | 29.62125 | -95.24834 | 1819 ft | 165 kts | 136° |
| 2026-05-05 04:32 | 29.61465 | -95.23693 | 2380 ft | 185 kts | 122° |
| 2026-05-05 04:32 | 29.61075 | -95.22206 | 2991 ft | 205 kts | 103° |
| 2026-05-05 04:33 | 29.61079 | -95.20485 | 3528 ft | 226 kts | 85° |
| 2026-05-05 04:33 | 29.61496 | -95.18687 | 4161 ft | 241 kts | 70° |
| 2026-05-05 04:33 | 29.62239 | -95.16899 | 4788 ft | 256 kts | 64° |
| 2026-05-05 04:33 | 29.63039 | -95.15005 | 5378 ft | 270 kts | 64° |
| 2026-05-05 04:34 | 29.63865 | -95.13016 | 6054 ft | 280 kts | 64° |
| 2026-05-05 04:34 | 29.64672 | -95.10951 | 6831 ft | 285 kts | 65° |
| 2026-05-05 04:34 | 29.65464 | -95.08865 | 7747 ft | 285 kts | 66° |
| 2026-05-05 04:34 | 29.66141 | -95.06732 | 8579 ft | 292 kts | 72° |
| 2026-05-05 04:35 | 29.66586 | -95.04384 | 9389 ft | 301 kts | 79° |
| 2026-05-05 04:35 | 29.66911 | -95.01975 | 10189 ft | 310 kts | 80° |
| 2026-05-05 04:35 | 29.67216 | -94.99522 | 10943 ft | 317 kts | 80° |
| 2026-05-05 04:35 | 29.67541 | -94.96984 | 11796 ft | 322 kts | 78° |
| 2026-05-05 04:36 | 29.67904 | -94.94427 | 12608 ft | 328 kts | 78° |
| 2026-05-05 04:36 | 29.68291 | -94.91807 | 13436 ft | 334 kts | 77° |
| 2026-05-05 04:36 | 29.68706 | -94.89170 | 14294 ft | 337 kts | 76° |
| 2026-05-05 04:36 | 29.69151 | -94.86513 | 15127 ft | 342 kts | 75° |
| 2026-05-05 04:37 | 29.69589 | -94.83772 | 15760 ft | 353 kts | 76° |
| 2026-05-05 04:37 | 29.70026 | -94.80962 | 16502 ft | 360 kts | 75° |
| 2026-05-05 04:37 | 29.70476 | -94.78108 | 17298 ft | 366 kts | 75° |
| 2026-05-05 04:37 | 29.70943 | -94.75207 | 18060 ft | 372 kts | 75° |
| 2026-05-05 04:38 | 29.71426 | -94.72251 | 18729 ft | 379 kts | 74° |
| 2026-05-05 04:38 | 29.71918 | -94.69259 | 19412 ft | 384 kts | 74° |
| 2026-05-05 04:38 | 29.72418 | -94.66227 | 20126 ft | 388 kts | 74° |
| 2026-05-05 04:38 | 29.72924 | -94.63154 | 20826 ft | 394 kts | 74° |
| 2026-05-05 04:39 | 29.73439 | -94.60031 | 21508 ft | 399 kts | 73° |
| 2026-05-05 04:39 | 29.73960 | -94.56871 | 22198 ft | 405 kts | 73° |
| 2026-05-05 04:39 | 29.74298 | -94.53613 | 22863 ft | 416 kts | 84° |
| 2026-05-05 04:39 | 29.74151 | -94.50291 | 23540 ft | 425 kts | 94° |
| 2026-05-05 04:40 | 29.73727 | -94.46892 | 24114 ft | 431 kts | 96° |
| 2026-05-05 04:40 | 29.73307 | -94.43472 | 24680 ft | 434 kts | 90° |
| 2026-05-05 04:40 | 29.73364 | -94.40013 | 25243 ft | 432 kts | 77° |
| 2026-05-05 04:40 | 29.73771 | -94.36581 | 25845 ft | 434 kts | 76° |
| 2026-05-05 04:41 | 29.74227 | -94.33134 | 26417 ft | 438 kts | 75° |
| 2026-05-05 04:41 | 29.74697 | -94.29653 | 26910 ft | 444 kts | 75° |
| 2026-05-05 04:41 | 29.75161 | -94.26154 | 26912 ft | 438 kts | 75° |
| 2026-05-05 04:41 | 29.75601 | -94.22717 | 26940 ft | 432 kts | 76° |
| 2026-05-05 04:42 | 29.76042 | -94.19242 | 26976 ft | 446 kts | 75° |
| 2026-05-05 04:42 | 29.76496 | -94.15647 | 26995 ft | 460 kts | 75° |
| 2026-05-05 04:42 | 29.76945 | -94.12032 | 26966 ft | 462 kts | 76° |
| 2026-05-05 04:42 | 29.77393 | -94.08335 | 26948 ft | 458 kts | 76° |
| 2026-05-05 04:43 | 29.77826 | -94.04715 | 26945 ft | 454 kts | 76° |
| 2026-05-05 04:43 | 29.78259 | -94.01108 | 26966 ft | 456 kts | 76° |
| 2026-05-05 04:43 | 29.78689 | -93.97541 | 26971 ft | 457 kts | 76° |
| 2026-05-05 04:43 | 29.79126 | -93.93916 | 26967 ft | 458 kts | 76° |
| 2026-05-05 04:44 | 29.79564 | -93.90275 | 26963 ft | 458 kts | 76° |
| 2026-05-05 04:44 | 29.80001 | -93.86636 | 26961 ft | 459 kts | 76° |
| 2026-05-05 04:44 | 29.80435 | -93.83011 | 26953 ft | 459 kts | 76° |
| 2026-05-05 04:44 | 29.80871 | -93.79362 | 26969 ft | 458 kts | 76° |
| 2026-05-05 04:45 | 29.81304 | -93.75734 | 26970 ft | 458 kts | 76° |
| 2026-05-05 04:45 | 29.81736 | -93.72100 | 26958 ft | 457 kts | 76° |
| 2026-05-05 04:45 | 29.82166 | -93.68470 | 26958 ft | 456 kts | 76° |
| 2026-05-05 04:45 | 29.82594 | -93.64852 | 26961 ft | 455 kts | 76° |
| 2026-05-05 04:46 | 29.82877 | -93.62458 | 26958 ft | 455 kts | 76° |
| 2026-05-05 04:46 | 29.83440 | -93.57678 | 26962 ft | 454 kts | 76° |
| 2026-05-05 04:46 | 29.83726 | -93.55253 | 26964 ft | 454 kts | 76° |
| 2026-05-05 04:46 | 29.84288 | -93.50467 | 26976 ft | 454 kts | 76° |
| 2026-05-05 04:47 | 29.84572 | -93.48034 | 26975 ft | 454 kts | 76° |
| 2026-05-05 04:47 | 29.84992 | -93.44445 | 26975 ft | 454 kts | 76° |
| 2026-05-05 04:47 | 29.85413 | -93.40839 | 26977 ft | 454 kts | 76° |
| 2026-05-05 04:47 | 29.85832 | -93.37230 | 26976 ft | 454 kts | 76° |
| 2026-05-05 04:48 | 29.86251 | -93.33623 | 26979 ft | 454 kts | 76° |
| 2026-05-05 04:48 | 29.86668 | -93.30016 | 26979 ft | 455 kts | 76° |
| 2026-05-05 04:48 | 29.87081 | -93.26443 | 26979 ft | 455 kts | 76° |
| 2026-05-05 04:48 | 29.87497 | -93.22829 | 26981 ft | 455 kts | 76° |
| 2026-05-05 04:49 | 29.87912 | -93.19216 | 26981 ft | 455 kts | 76° |
| 2026-05-05 04:49 | 29.88326 | -93.15597 | 26980 ft | 455 kts | 76° |
| 2026-05-05 04:49 | 29.88740 | -93.11973 | 26981 ft | 456 kts | 76° |
| 2026-05-05 04:49 | 29.89154 | -93.08347 | 26981 ft | 456 kts | 76° |
| 2026-05-05 04:50 | 29.89566 | -93.04718 | 26994 ft | 456 kts | 76° |
| 2026-05-05 04:50 | 29.89971 | -93.01149 | 26991 ft | 455 kts | 76° |
| 2026-05-05 04:50 | 29.90385 | -92.97487 | 26982 ft | 455 kts | 76° |
| 2026-05-05 04:50 | 29.90788 | -92.93916 | 26977 ft | 454 kts | 76° |
| 2026-05-05 04:51 | 29.91193 | -92.90312 | 26977 ft | 454 kts | 76° |
| 2026-05-05 04:51 | 29.91601 | -92.86684 | 26981 ft | 453 kts | 76° |
| 2026-05-05 04:51 | 29.92005 | -92.83077 | 26982 ft | 453 kts | 76° |
| 2026-05-05 04:51 | 29.92407 | -92.79477 | 26984 ft | 453 kts | 76° |
| 2026-05-05 04:52 | 29.92807 | -92.75885 | 26983 ft | 452 kts | 76° |
| 2026-05-05 04:52 | 29.93208 | -92.72282 | 26986 ft | 452 kts | 76° |
| 2026-05-05 04:52 | 29.93604 | -92.68719 | 26986 ft | 452 kts | 76° |
| 2026-05-05 04:52 | 29.94001 | -92.65128 | 27004 ft | 452 kts | 75° |
| 2026-05-05 04:53 | 29.94398 | -92.61530 | 26995 ft | 452 kts | 75° |
| 2026-05-05 04:53 | 29.94795 | -92.57926 | 26988 ft | 452 kts | 75° |
| 2026-05-05 04:53 | 29.95189 | -92.54334 | 26987 ft | 452 kts | 75° |
| 2026-05-05 04:53 | 29.95585 | -92.50722 | 26985 ft | 452 kts | 76° |
| 2026-05-05 04:54 | 29.95979 | -92.47118 | 26986 ft | 452 kts | 76° |
| 2026-05-05 04:54 | 29.96370 | -92.43528 | 26987 ft | 452 kts | 76° |
| 2026-05-05 04:54 | 29.96761 | -92.39922 | 26987 ft | 452 kts | 76° |
| 2026-05-05 04:54 | 29.97147 | -92.36364 | 26988 ft | 452 kts | 76° |
| 2026-05-05 04:55 | 29.97536 | -92.32762 | 26989 ft | 452 kts | 76° |
| 2026-05-05 04:55 | 29.97925 | -92.29161 | 26989 ft | 452 kts | 76° |
| 2026-05-05 04:55 | 29.98313 | -92.25555 | 26892 ft | 455 kts | 76° |
| 2026-05-05 04:55 | 29.98704 | -92.21923 | 26628 ft | 455 kts | 76° |
| 2026-05-05 04:56 | 29.99090 | -92.18306 | 26399 ft | 452 kts | 76° |
| 2026-05-05 04:56 | 29.99471 | -92.14714 | 26152 ft | 450 kts | 76° |
| 2026-05-05 04:56 | 29.99850 | -92.11133 | 25910 ft | 448 kts | 76° |
| 2026-05-05 04:56 | 30.00223 | -92.07618 | 25684 ft | 446 kts | 76° |
| 2026-05-05 04:57 | 30.00598 | -92.04074 | 25276 ft | 444 kts | 76° |
| 2026-05-05 04:57 | 30.00969 | -92.00548 | 24845 ft | 441 kts | 76° |
| 2026-05-05 04:57 | 30.01336 | -91.97062 | 24410 ft | 438 kts | 76° |
| 2026-05-05 04:57 | 30.01703 | -91.93571 | 23921 ft | 437 kts | 76° |
| 2026-05-05 04:58 | 30.02068 | -91.90099 | 23420 ft | 435 kts | 77° |
| 2026-05-05 04:58 | 30.02430 | -91.86639 | 22861 ft | 432 kts | 77° |
| 2026-05-05 04:58 | 30.02786 | -91.83215 | 22365 ft | 429 kts | 77° |
| 2026-05-05 04:58 | 30.03140 | -91.79810 | 21874 ft | 425 kts | 78° |
| 2026-05-05 04:59 | 30.03490 | -91.76432 | 21394 ft | 422 kts | 78° |
| 2026-05-05 04:59 | 30.03836 | -91.73084 | 20920 ft | 418 kts | 78° |
| 2026-05-05 04:59 | 30.04179 | -91.69765 | 20448 ft | 415 kts | 78° |
| 2026-05-05 04:59 | 30.04519 | -91.66468 | 19987 ft | 411 kts | 79° |
| 2026-05-05 05:00 | 30.04851 | -91.63238 | 19521 ft | 408 kts | 79° |
| 2026-05-05 05:00 | 30.05183 | -91.59994 | 19053 ft | 402 kts | 79° |
| 2026-05-05 05:00 | 30.05507 | -91.56821 | 18587 ft | 395 kts | 79° |
| 2026-05-05 05:00 | 30.05824 | -91.53697 | 18098 ft | 388 kts | 80° |
| 2026-05-05 05:01 | 30.06135 | -91.50637 | 17626 ft | 381 kts | 80° |
| 2026-05-05 05:01 | 30.06442 | -91.47613 | 17154 ft | 377 kts | 80° |
| 2026-05-05 05:01 | 30.06746 | -91.44618 | 16691 ft | 374 kts | 80° |
| 2026-05-05 05:01 | 30.07045 | -91.41660 | 16232 ft | 368 kts | 80° |
| 2026-05-05 05:02 | 30.07339 | -91.38740 | 15792 ft | 363 kts | 80° |
| 2026-05-05 05:02 | 30.07628 | -91.35865 | 15359 ft | 357 kts | 80° |
| 2026-05-05 05:02 | 30.07908 | -91.33077 | 14940 ft | 353 kts | 80° |
| 2026-05-05 05:02 | 30.08191 | -91.30256 | 14513 ft | 352 kts | 81° |
| 2026-05-05 05:03 | 30.08472 | -91.27452 | 14093 ft | 351 kts | 81° |
| 2026-05-05 05:03 | 30.08751 | -91.24663 | 13635 ft | 349 kts | 81° |
| 2026-05-05 05:03 | 30.09028 | -91.21882 | 13162 ft | 348 kts | 81° |
| 2026-05-05 05:03 | 30.09302 | -91.19113 | 12704 ft | 343 kts | 81° |
| 2026-05-05 05:04 | 30.09571 | -91.16394 | 12269 ft | 337 kts | 81° |
| 2026-05-05 05:04 | 30.09834 | -91.13728 | 11853 ft | 334 kts | 81° |
| 2026-05-05 05:04 | 30.10096 | -91.11072 | 11433 ft | 332 kts | 81° |
| 2026-05-05 05:04 | 30.10353 | -91.08466 | 11022 ft | 330 kts | 81° |
| 2026-05-05 05:05 | 30.10611 | -91.05839 | 10611 ft | 328 kts | 81° |
| 2026-05-05 05:05 | 30.10868 | -91.03227 | 10268 ft | 324 kts | 81° |
| 2026-05-05 05:05 | 30.11115 | -91.00693 | 10138 ft | 313 kts | 81° |
| 2026-05-05 05:05 | 30.11355 | -90.98226 | 9964 ft | 304 kts | 81° |
| 2026-05-05 05:06 | 30.11591 | -90.95801 | 9585 ft | 303 kts | 82° |
| 2026-05-05 05:06 | 30.11629 | -90.93394 | 9427 ft | 295 kts | 92° |
| 2026-05-05 05:06 | 30.11446 | -90.91047 | 9133 ft | 292 kts | 95° |
| 2026-05-05 05:06 | 30.11223 | -90.88728 | 8813 ft | 290 kts | 95° |
| 2026-05-05 05:07 | 30.11005 | -90.86419 | 8475 ft | 289 kts | 95° |
| 2026-05-05 05:07 | 30.10799 | -90.84112 | 8138 ft | 288 kts | 95° |
| 2026-05-05 05:07 | 30.10603 | -90.81809 | 7799 ft | 287 kts | 95° |
| 2026-05-05 05:07 | 30.10414 | -90.79518 | 7461 ft | 286 kts | 95° |
| 2026-05-05 05:08 | 30.10230 | -90.77231 | 7117 ft | 285 kts | 95° |
| 2026-05-05 05:08 | 30.10050 | -90.74980 | 6783 ft | 284 kts | 95° |
| 2026-05-05 05:08 | 30.09868 | -90.72706 | 6441 ft | 278 kts | 95° |
| 2026-05-05 05:08 | 30.09694 | -90.70541 | 6075 ft | 271 kts | 96° |
| 2026-05-05 05:09 | 30.09386 | -90.68436 | 5742 ft | 262 kts | 104° |
| 2026-05-05 05:09 | 30.08915 | -90.66437 | 5434 ft | 254 kts | 107° |
| 2026-05-05 05:09 | 30.08437 | -90.64508 | 5141 ft | 246 kts | 107° |
| 2026-05-05 05:09 | 30.07974 | -90.62631 | 4846 ft | 239 kts | 107° |
| 2026-05-05 05:10 | 30.07530 | -90.60809 | 4556 ft | 233 kts | 107° |
| 2026-05-05 05:10 | 30.07102 | -90.59042 | 4333 ft | 222 kts | 108° |
| 2026-05-05 05:10 | 30.06701 | -90.57381 | 4239 ft | 208 kts | 107° |
| 2026-05-05 05:10 | 30.06326 | -90.55821 | 4134 ft | 195 kts | 108° |
| 2026-05-05 05:11 | 30.05975 | -90.54361 | 4061 ft | 182 kts | 108° |
| 2026-05-05 05:11 | 30.05647 | -90.52999 | 3992 ft | 174 kts | 108° |
| 2026-05-05 05:11 | 30.05324 | -90.51663 | 3799 ft | 169 kts | 108° |
| 2026-05-05 05:11 | 30.05010 | -90.50359 | 3612 ft | 169 kts | 109° |
| 2026-05-05 05:12 | 30.04695 | -90.49054 | 3418 ft | 169 kts | 109° |
| 2026-05-05 05:12 | 30.04379 | -90.47744 | 3217 ft | 170 kts | 109° |
| 2026-05-05 05:12 | 30.04063 | -90.46432 | 2998 ft | 169 kts | 109° |
| 2026-05-05 05:12 | 30.03756 | -90.45156 | 2777 ft | 160 kts | 110° |
| 2026-05-05 05:13 | 30.03468 | -90.43955 | 2574 ft | 152 kts | 111° |
| 2026-05-05 05:13 | 30.03186 | -90.42785 | 2383 ft | 150 kts | 111° |
| 2026-05-05 05:13 | 30.02908 | -90.41636 | 2035 ft | 149 kts | 111° |
| 2026-05-05 05:13 | 30.02629 | -90.40479 | 1669 ft | 148 kts | 112° |
| 2026-05-05 05:14 | 30.02354 | -90.39337 | 1309 ft | 146 kts | 111° |
| 2026-05-05 05:14 | 30.02080 | -90.38206 | 989 ft | 148 kts | 110° |
| 2026-05-05 05:14 | 30.01807 | -90.37071 | 979 ft | 146 kts | 110° |
| 2026-05-05 05:14 | 30.01538 | -90.35961 | 1131 ft | 146 kts | 110° |
| 2026-05-05 05:15 | 30.01297 | -90.34783 | 1074 ft | 150 kts | 108° |
| 2026-05-05 05:15 | 30.01025 | -90.33675 | 899 ft | 141 kts | 111° |
| 2026-05-05 05:15 | 30.00748 | -90.32595 | 663 ft | 139 kts | 108° |
| 2026-05-05 05:15 | 30.00487 | -90.31532 | 479 ft | 136 kts | 107° |
| 2026-05-05 05:16 | 30.00228 | -90.30481 | 360 ft | 137 kts | 110° |
| 2026-05-05 05:16 | 29.99965 | -90.29426 | 204 ft | 135 kts | 107° |
| 2026-05-05 05:16 | 29.99710 | -90.28379 | 62 ft | 134 kts | 107° |
| 2026-05-05 05:16 | 29.99467 | -90.27379 | 2 ft | 116 kts | 105° |
| 2026-05-05 05:17 | 29.99292 | -90.26649 | 9 ft | 72 kts | 105° |
| 2026-05-05 05:17 | 29.99197 | -90.26260 | 5 ft | 30 kts | 106° |
| 2026-05-05 05:17 | 29.99148 | -90.26051 | 5 ft | 26 kts | 105° |
| 2026-05-05 05:17 | 29.99107 | -90.25871 | 7 ft | 21 kts | 103° |
| 2026-05-05 05:18 | 29.99074 | -90.25730 | 8 ft | 14 kts | 99° |
| 2026-05-05 05:18 | 29.99097 | -90.25651 | 6 ft | 6 kts | 32° |
| 2026-05-05 05:18 | 29.99136 | -90.25638 | 5 ft | 6 kts | 13° |
| 2026-05-05 05:18 | 29.99170 | -90.25629 | 4 ft | 3 kts | 12° |
| 2026-05-05 05:19 | 29.99193 | -90.25639 | 4 ft | 4 kts | 320° |
| 2026-05-05 05:19 | 29.99206 | -90.25674 | 4 ft | 6 kts | 282° |
| 2026-05-05 05:19 | 29.99215 | -90.25728 | 3 ft | 8 kts | 279° |
| 2026-05-05 05:19 | 29.99224 | -90.25790 | 3 ft | 8 kts | 283° |
| 2026-05-05 05:20 | 29.99251 | -90.25843 | 3 ft | 8 kts | 313° |
| 2026-05-05 05:20 | 29.99299 | -90.25862 | 3 ft | 7 kts | 0° |
| 2026-05-05 05:20 | 29.99347 | -90.25852 | 2 ft | 6 kts | 12° |
| 2026-05-05 05:20 | 29.99380 | -90.25832 | 3 ft | 6 kts | 60° |
| 2026-05-05 05:21 | 29.99380 | -90.25794 | 5 ft | 3 kts | 99° |
| 2026-05-05 05:21 | 29.99376 | -90.25770 | 6 ft | 3 kts | 100° |
| 2026-05-05 05:21 | 29.99374 | -90.25759 | 7 ft | 1 kts | 101° |
| 2026-05-05 05:21 | 29.99374 | -90.25758 | 7 ft | 0 kts | 101° |